createdAt,value
2018-10-17T00:02:12.172Z,24.30
2018-10-17T00:04:40.439Z,20.80
2018-10-17T00:07:08.770Z,20.20
2018-10-17T00:09:36.925Z,21.90
2018-10-17T00:12:05.144Z,19.43
2018-10-17T00:14:33.327Z,18.73
2018-10-17T00:17:01.608Z,21.07
2018-10-17T00:19:29.723Z,20.23
2018-10-17T00:21:58.089Z,22.37
2018-10-17T00:24:26.298Z,18.60
2018-10-17T00:26:54.520Z,18.57
2018-10-17T00:29:22.664Z,21.20
2018-10-17T00:31:50.966Z,18.67
2018-10-17T00:34:19.940Z,19.10
2018-10-17T00:36:48.452Z,18.33
2018-10-17T00:39:16.732Z,17.87
2018-10-17T00:41:44.981Z,21.17
2018-10-17T00:44:13.149Z,18.27
2018-10-17T00:46:41.358Z,20.17
2018-10-17T00:49:10.603Z,18.10
2018-10-17T00:51:38.710Z,21.00
2018-10-17T00:54:07.105Z,18.17
2018-10-17T00:56:35.495Z,18.80
2018-10-17T00:59:07.773Z,22.90
2018-10-17T01:01:36.323Z,20.13
2018-10-17T01:04:04.529Z,20.23
2018-10-17T01:06:33.662Z,22.03
2018-10-17T01:09:04.700Z,19.83
2018-10-17T01:11:32.996Z,22.37
2018-10-17T01:14:01.164Z,23.50
2018-10-17T01:16:29.653Z,20.33
2018-10-17T01:18:58.051Z,21.23
2018-10-17T01:21:26.237Z,19.43
2018-10-17T01:23:54.473Z,22.27
2018-10-17T01:26:22.837Z,21.63
2018-10-17T01:28:51.123Z,21.40
2018-10-17T01:31:19.504Z,24.83
2018-10-17T01:33:47.796Z,24.17
2018-10-17T01:36:16.115Z,25.63
2018-10-17T01:38:44.275Z,21.53
2018-10-17T01:41:12.501Z,21.47
2018-10-17T01:43:40.606Z,20.80
2018-10-17T01:46:08.736Z,20.90
2018-10-17T01:48:37.223Z,21.53
2018-10-17T01:51:05.697Z,24.50
2018-10-17T01:53:33.977Z,24.77
2018-10-17T01:56:02.228Z,27.10
2018-10-17T01:58:32.587Z,21.67
2018-10-17T02:01:00.728Z,22.80
2018-10-17T02:03:28.885Z,21.93
2018-10-17T02:05:57.207Z,22.42
2018-10-17T02:08:25.520Z,21.10
2018-10-17T02:10:53.703Z,23.60
2018-10-17T02:13:22.558Z,21.93
2018-10-17T02:15:52.573Z,25.60
2018-10-17T02:18:22.269Z,24.97
2018-10-17T02:20:50.961Z,28.77
2018-10-17T02:23:19.146Z,22.50
2018-10-17T02:25:47.346Z,22.17
2018-10-17T02:28:15.610Z,22.77
2018-10-17T02:30:43.817Z,20.68
2018-10-17T02:33:12.008Z,25.37
2018-10-17T02:35:40.232Z,23.63
2018-10-17T02:38:08.537Z,23.93
2018-10-17T02:40:36.708Z,24.33
2018-10-17T02:43:05.025Z,22.33
2018-10-17T02:45:33.229Z,24.73
2018-10-17T02:48:01.569Z,21.50
2018-10-17T02:50:29.711Z,24.27
2018-10-17T02:52:57.871Z,26.07
2018-10-17T02:55:25.982Z,26.83
2018-10-17T02:57:54.324Z,24.10
2018-10-17T03:00:22.530Z,27.27
2018-10-17T03:02:50.759Z,26.00
2018-10-17T03:05:18.968Z,23.13
2018-10-17T03:07:47.264Z,24.10
2018-10-17T03:10:15.441Z,27.90
2018-10-17T03:12:43.685Z,26.63
2018-10-17T03:15:11.923Z,23.70
2018-10-17T03:17:40.281Z,21.93
2018-10-17T03:20:09.704Z,25.93
2018-10-17T03:22:37.892Z,29.20
2018-10-17T03:25:06.643Z,25.53
2018-10-17T03:27:34.859Z,24.67
2018-10-17T03:30:03.044Z,24.43
2018-10-17T03:32:31.235Z,29.70
2018-10-17T03:34:59.444Z,26.80
2018-10-17T03:37:28.791Z,25.30
2018-10-17T03:39:56.996Z,26.73
2018-10-17T03:42:25.258Z,27.73
2018-10-17T03:44:53.649Z,27.57
2018-10-17T03:47:22.007Z,26.23
2018-10-17T03:49:50.358Z,26.73
2018-10-17T03:52:18.436Z,29.80
2018-10-17T03:54:46.612Z,28.17
2018-10-17T04:04:00.168Z,25.93
2018-10-17T04:06:28.518Z,27.60
2018-10-17T04:08:56.748Z,28.87
2018-10-17T04:11:25.186Z,27.10
2018-10-17T04:13:53.423Z,30.10
2018-10-17T04:16:21.656Z,27.90
2018-10-17T04:18:49.876Z,28.43
2018-10-17T04:21:18.048Z,28.63
2018-10-17T04:23:46.475Z,30.60
2018-10-17T04:26:14.719Z,33.73
2018-10-17T04:28:42.925Z,29.33
2018-10-17T04:31:11.145Z,29.73
2018-10-17T04:33:39.347Z,32.20
2018-10-17T04:36:07.644Z,30.37
2018-10-17T04:38:36.001Z,31.63
2018-10-17T04:41:04.203Z,34.07
2018-10-17T04:43:32.368Z,32.13
2018-10-17T04:46:00.567Z,29.07
2018-10-17T04:48:28.783Z,30.50
2018-10-17T04:50:56.951Z,31.67
2018-10-17T04:53:25.154Z,29.73
2018-10-17T04:55:53.345Z,31.27
2018-10-17T04:58:21.692Z,33.27
2018-10-17T05:00:50.053Z,27.90
2018-10-17T05:03:18.243Z,32.73
2018-10-17T05:05:46.412Z,29.47
2018-10-17T05:08:14.854Z,33.40
2018-10-17T05:10:43.036Z,29.37
2018-10-17T05:13:11.222Z,28.40
2018-10-17T05:15:39.401Z,33.67
2018-10-17T05:18:07.721Z,33.13
2018-10-17T05:20:35.990Z,31.40
2018-10-17T05:23:04.388Z,29.90
2018-10-17T05:25:32.573Z,29.67
2018-10-17T05:28:01.063Z,27.80
2018-10-17T05:30:29.250Z,29.97
2018-10-17T05:32:57.403Z,28.60
2018-10-17T05:35:25.587Z,31.57
2018-10-17T05:37:53.962Z,33.27
2018-10-17T05:40:22.056Z,28.60
2018-10-17T05:42:50.221Z,28.53
2018-10-17T05:45:18.390Z,29.77
2018-10-17T05:47:48.337Z,30.00
2018-10-17T05:50:16.491Z,30.43
2018-10-17T05:52:44.678Z,29.50
2018-10-17T05:55:13.152Z,31.23
2018-10-17T05:57:42.365Z,33.03
2018-10-17T06:00:10.631Z,31.57
2018-10-17T06:02:39.027Z,30.97
2018-10-17T06:05:08.500Z,28.87
2018-10-17T06:09:06.206Z,32.23
2018-10-17T06:11:34.497Z,28.83
2018-10-17T06:14:02.676Z,28.60
2018-10-17T06:16:31.032Z,30.50
2018-10-17T06:18:59.287Z,30.60
2018-10-17T06:21:27.473Z,31.63
2018-10-17T06:23:55.685Z,33.50
2018-10-17T06:26:23.973Z,31.23
2018-10-17T06:28:52.176Z,32.20
2018-10-17T06:31:20.338Z,31.07
2018-10-17T06:33:48.559Z,31.87
2018-10-17T06:36:16.820Z,31.20
2018-10-17T06:38:45.089Z,35.93
2018-10-17T06:41:13.446Z,31.10
2018-10-17T06:43:41.590Z,32.33
2018-10-17T06:46:09.799Z,33.33
2018-10-17T06:48:37.983Z,34.47
2018-10-17T06:51:06.285Z,30.67
2018-10-17T06:53:34.430Z,32.87
2018-10-17T06:56:02.628Z,32.43
2018-10-17T06:58:30.874Z,29.77
2018-10-17T07:00:59.115Z,34.43
2018-10-17T07:03:27.373Z,32.63
2018-10-17T07:05:55.614Z,31.80
2018-10-17T07:08:24.191Z,32.37
2018-10-17T07:10:52.586Z,30.80
2018-10-17T07:13:20.932Z,32.00
2018-10-17T07:15:49.113Z,36.90
2018-10-17T07:18:17.274Z,33.93
2018-10-17T07:20:45.612Z,32.00
2018-10-17T07:23:13.901Z,35.20
2018-10-17T07:25:41.996Z,34.60
2018-10-17T07:28:10.458Z,34.67
2018-10-17T07:30:38.674Z,31.67
2018-10-17T07:33:06.978Z,33.17
2018-10-17T07:35:35.201Z,36.13
2018-10-17T07:38:04.518Z,33.17
2018-10-17T07:40:32.858Z,33.37
2018-10-17T07:43:01.005Z,37.43
2018-10-17T07:45:29.206Z,32.20
2018-10-17T07:47:57.430Z,33.80
2018-10-17T07:50:25.557Z,34.03
2018-10-17T07:52:53.736Z,36.63
2018-10-17T07:55:21.871Z,33.93
2018-10-17T07:57:50.133Z,33.80
2018-10-17T08:00:18.315Z,37.30
2018-10-17T08:02:46.489Z,36.80
2018-10-17T08:05:14.665Z,28.97
2018-10-17T08:07:43.009Z,33.80
2018-10-17T08:10:11.697Z,35.57
2018-10-17T08:12:39.896Z,36.47
2018-10-17T08:15:08.772Z,30.80
2018-10-17T08:17:37.300Z,36.53
2018-10-17T08:20:07.171Z,32.20
2018-10-17T08:22:35.624Z,35.40
2018-10-17T08:25:03.992Z,33.67
2018-10-17T08:27:32.415Z,34.37
2018-10-17T08:30:00.615Z,33.33
2018-10-17T08:32:28.745Z,35.00
2018-10-17T08:34:56.926Z,35.87
2018-10-17T08:37:25.795Z,34.18
2018-10-17T08:39:53.768Z,30.17
2018-10-17T08:42:22.011Z,26.00
2018-10-17T08:44:50.229Z,27.83
2018-10-17T08:47:18.535Z,26.10
2018-10-17T08:49:46.712Z,24.40
2018-10-17T08:52:14.975Z,30.80
2018-10-17T08:54:43.157Z,24.40
2018-10-17T08:57:11.373Z,25.80
2018-10-17T08:59:39.591Z,26.97
2018-10-17T09:02:07.782Z,23.57
2018-10-17T09:04:36.281Z,22.40
2018-10-17T09:07:04.609Z,22.03
2018-10-17T09:09:32.788Z,28.67
2018-10-17T09:12:00.987Z,25.23
2018-10-17T09:14:29.125Z,22.67
2018-10-17T09:16:57.420Z,23.07
2018-10-17T09:19:25.643Z,21.00
2018-10-17T09:21:54.047Z,20.67
2018-10-17T09:24:21.907Z,26.67
2018-10-17T09:26:50.319Z,22.07
2018-10-17T09:29:18.532Z,23.70
2018-10-17T09:31:46.722Z,25.77
2018-10-17T09:34:15.003Z,20.17
2018-10-17T09:36:43.164Z,23.07
2018-10-17T09:39:12.136Z,20.83
2018-10-17T09:41:40.516Z,14.40
2018-10-17T09:44:08.700Z,13.87
2018-10-17T09:46:37.089Z,12.57
2018-10-17T09:49:05.388Z,14.43
2018-10-17T09:51:33.844Z,13.23
2018-10-17T09:54:03.152Z,14.27
2018-10-17T09:56:31.479Z,15.43
2018-10-17T09:58:59.632Z,10.53
2018-10-17T10:01:33.805Z,13.67
2018-10-17T10:04:02.018Z,11.00
2018-10-17T10:06:30.224Z,10.83
2018-10-17T10:08:58.508Z,8.57
2018-10-17T10:11:26.712Z,11.37
2018-10-17T10:14:01.452Z,9.40
2018-10-17T10:16:30.247Z,7.57
2018-10-17T10:18:58.456Z,8.73
2018-10-17T10:21:26.820Z,11.20
2018-10-17T10:23:54.974Z,7.23
2018-10-17T10:26:23.137Z,8.47
2018-10-17T10:28:51.328Z,10.90
2018-10-17T10:31:19.475Z,8.73
2018-10-17T10:33:47.687Z,7.87
2018-10-17T10:36:15.881Z,7.37
2018-10-17T10:38:44.085Z,9.60
2018-10-17T10:41:12.300Z,10.27
2018-10-17T10:43:40.562Z,7.03
2018-10-17T10:46:08.925Z,7.80
2018-10-17T10:48:37.598Z,9.40
2018-10-17T10:51:06.194Z,6.70
2018-10-17T10:53:34.353Z,7.17
2018-10-17T10:56:02.705Z,7.10
2018-10-17T10:58:31.208Z,7.60
2018-10-17T11:00:59.440Z,6.03
2018-10-17T11:03:27.681Z,7.70
2018-10-17T11:05:56.027Z,10.20
2018-10-17T11:08:24.628Z,6.70
2018-10-17T11:10:53.360Z,7.37
2018-10-17T11:13:21.552Z,7.80
2018-10-17T11:15:49.793Z,8.80
2018-10-17T11:18:18.115Z,6.83
2018-10-17T11:20:46.343Z,7.17
2018-10-17T11:23:14.952Z,9.10
2018-10-17T11:25:43.406Z,8.07
2018-10-17T11:28:11.821Z,8.30
2018-10-17T11:30:40.064Z,9.13
2018-10-17T11:33:08.893Z,6.47
2018-10-17T11:35:37.077Z,9.40
2018-10-17T11:38:05.614Z,7.20
2018-10-17T11:40:33.780Z,9.97
2018-10-17T11:43:01.874Z,7.90
2018-10-17T11:45:30.053Z,8.47
2018-10-17T11:47:58.425Z,9.20
2018-10-17T11:50:26.613Z,11.50
2018-10-17T11:52:55.077Z,10.20
2018-10-17T11:55:23.349Z,8.20
2018-10-17T11:57:51.815Z,8.03
2018-10-17T12:00:20.047Z,9.43
2018-10-17T12:02:48.292Z,9.37
2018-10-17T12:05:17.050Z,8.87
2018-10-17T12:07:44.996Z,7.97
2018-10-17T12:10:13.191Z,7.83
2018-10-17T12:12:41.362Z,10.03
2018-10-17T12:15:12.624Z,7.07
2018-10-17T12:17:41.150Z,7.60
2018-10-17T12:20:11.520Z,7.70
2018-10-17T12:22:40.450Z,6.47
2018-10-17T12:25:09.313Z,7.17
2018-10-17T12:27:38.033Z,6.33
2018-10-17T12:30:07.767Z,4.93
2018-10-17T12:35:33.987Z,6.47
2018-10-17T12:38:02.463Z,4.90
2018-10-17T12:40:30.724Z,6.13
2018-10-17T12:42:58.873Z,5.13
2018-10-17T12:45:27.191Z,7.47
2018-10-17T12:47:56.243Z,4.67
2018-10-17T12:50:24.604Z,4.73
2018-10-17T12:52:52.742Z,7.07
2018-10-17T12:55:20.875Z,3.73
2018-10-17T12:57:49.232Z,7.17
2018-10-17T13:00:17.477Z,5.50
2018-10-17T13:02:45.646Z,9.60
2018-10-17T13:05:13.839Z,10.47
2018-10-17T13:07:42.070Z,7.93
2018-10-17T13:10:11.344Z,7.33
2018-10-17T13:12:39.747Z,9.67
2018-10-17T13:15:09.105Z,7.60
2018-10-17T13:17:37.436Z,9.43
2018-10-17T13:20:05.640Z,10.63
2018-10-17T13:22:33.775Z,7.30
2018-10-17T13:25:02.093Z,8.27
2018-10-17T13:27:30.125Z,7.73
2018-10-17T13:29:58.553Z,6.30
2018-10-17T13:32:26.736Z,6.40
2018-10-17T13:34:55.073Z,7.27
2018-10-17T13:37:25.282Z,4.77
2018-10-17T13:39:53.479Z,6.83
2018-10-17T13:42:21.637Z,6.23
2018-10-17T13:44:49.818Z,6.70
2018-10-17T13:47:18.237Z,7.20
2018-10-17T13:49:46.642Z,6.83
2018-10-17T13:52:14.724Z,7.80
2018-10-17T13:54:43.256Z,5.80
2018-10-17T13:57:11.484Z,6.57
2018-10-17T13:59:39.750Z,3.90
2018-10-17T14:02:08.202Z,4.60
2018-10-17T14:04:37.307Z,4.77
2018-10-17T14:07:05.772Z,5.87
2018-10-17T14:09:33.899Z,5.93
2018-10-17T14:12:02.163Z,3.77
2018-10-17T14:14:30.391Z,4.27
2018-10-17T14:16:59.755Z,6.77
2018-10-17T14:19:27.941Z,5.97
2018-10-17T14:21:56.142Z,7.73
2018-10-17T14:24:24.330Z,7.07
2018-10-17T14:26:52.930Z,7.20
2018-10-17T14:29:21.299Z,7.50
2018-10-17T14:31:49.317Z,6.43
2018-10-17T14:34:17.619Z,5.13
2018-10-17T14:36:45.891Z,4.17
2018-10-17T14:39:14.121Z,3.83
2018-10-17T14:41:42.254Z,4.13
2018-10-17T14:44:10.693Z,4.43
2018-10-17T14:46:39.076Z,4.80
2018-10-17T14:49:07.271Z,6.83
2018-10-17T14:51:35.518Z,6.87
2018-10-17T14:54:03.789Z,5.07
2018-10-17T14:56:32.131Z,4.60
2018-10-17T14:59:00.826Z,4.50
2018-10-17T15:01:28.969Z,6.53
2018-10-17T15:03:57.160Z,5.17
2018-10-17T15:06:25.340Z,5.35
2018-10-17T15:08:53.534Z,7.13
2018-10-17T15:11:21.806Z,4.20
2018-10-17T15:13:50.051Z,4.00
2018-10-17T15:16:18.250Z,4.27
2018-10-17T15:18:46.493Z,5.13
2018-10-17T15:21:14.804Z,6.53
2018-10-17T15:23:43.234Z,5.00
2018-10-17T15:26:11.484Z,6.27
2018-10-17T15:28:39.696Z,4.03
2018-10-17T15:31:08.055Z,4.97
2018-10-17T15:33:36.145Z,3.33
2018-10-17T15:36:04.577Z,7.43
2018-10-17T15:38:32.939Z,4.90
2018-10-17T15:41:01.214Z,4.80
2018-10-17T15:43:29.487Z,5.53
2018-10-17T15:45:58.400Z,5.70
2018-10-17T15:48:26.719Z,7.33
2018-10-17T15:50:54.995Z,5.87
2018-10-17T15:53:23.185Z,3.97
2018-10-17T15:55:51.278Z,5.03
2018-10-17T15:58:19.760Z,3.43
2018-10-17T16:00:47.989Z,4.57
2018-10-17T16:03:16.222Z,3.87
2018-10-17T16:05:44.382Z,5.77
2018-10-17T16:08:12.783Z,3.27
2018-10-17T16:10:40.904Z,5.83
2018-10-17T16:13:09.964Z,4.27
2018-10-17T16:15:39.167Z,4.83
2018-10-17T16:18:08.424Z,4.23
2018-10-17T16:20:36.590Z,5.50
2018-10-17T16:23:04.972Z,6.20
2018-10-17T16:25:33.673Z,5.00
2018-10-17T16:28:02.275Z,3.83
2018-10-17T16:30:30.433Z,4.37
2018-10-17T16:32:58.619Z,6.67
2018-10-17T16:35:26.894Z,4.83
2018-10-17T16:37:55.187Z,4.57
2018-10-17T16:40:23.385Z,4.63
2018-10-17T16:42:51.598Z,5.00
2018-10-17T16:45:19.766Z,4.57
2018-10-17T16:47:47.993Z,9.57
2018-10-17T16:50:16.959Z,7.47
2018-10-17T16:52:45.900Z,5.60
2018-10-17T16:55:14.111Z,5.87
2018-10-17T16:57:42.362Z,4.60
2018-10-17T17:00:12.166Z,4.50
2018-10-17T17:02:40.355Z,5.13
2018-10-17T17:05:13.384Z,5.10
2018-10-17T17:07:41.922Z,6.17
2018-10-17T17:10:11.411Z,5.93
2018-10-17T17:12:40.036Z,6.17
2018-10-17T17:15:08.203Z,7.00
2018-10-17T17:17:36.537Z,5.90
2018-10-17T17:20:05.982Z,5.33
2018-10-17T17:22:34.233Z,5.40
2018-10-17T17:25:02.409Z,5.27
2018-10-17T17:27:30.665Z,4.73
2018-10-17T17:29:58.946Z,5.30
2018-10-17T17:32:27.072Z,8.40
2018-10-17T17:34:55.849Z,5.30
2018-10-17T17:37:24.082Z,5.97
2018-10-17T17:39:52.310Z,5.80
2018-10-17T17:42:20.496Z,4.17
2018-10-17T17:44:48.805Z,6.60
2018-10-17T17:47:17.067Z,6.30
2018-10-17T17:49:45.207Z,4.97
2018-10-17T17:52:13.471Z,8.10
2018-10-17T17:54:41.696Z,5.00
2018-10-17T17:57:09.921Z,5.40
2018-10-17T17:59:38.061Z,5.60
2018-10-17T18:02:06.471Z,6.77
2018-10-17T18:04:34.835Z,4.60
2018-10-17T18:07:03.477Z,5.10
2018-10-17T18:09:31.621Z,6.33
2018-10-17T18:11:59.850Z,6.73
2018-10-17T18:14:28.279Z,6.70
2018-10-17T18:16:57.268Z,6.77
2018-10-17T18:19:25.492Z,6.80
2018-10-17T18:21:53.797Z,6.43
2018-10-17T18:24:22.522Z,7.80
2018-10-17T18:26:50.953Z,8.00
2018-10-17T18:29:19.224Z,8.17
2018-10-17T18:31:47.413Z,5.87
2018-10-17T18:34:15.644Z,4.97
2018-10-17T18:36:43.997Z,7.03
2018-10-17T18:39:12.313Z,5.47
2018-10-17T18:41:40.485Z,7.23
2018-10-17T18:44:08.611Z,7.33
2018-10-17T18:46:36.929Z,9.93
2018-10-17T18:49:05.123Z,6.03
2018-10-17T18:51:33.326Z,6.33
2018-10-17T18:54:01.541Z,7.00
2018-10-17T18:56:29.748Z,6.70
2018-10-17T18:58:58.050Z,10.00
2018-10-17T19:01:26.247Z,6.50
2018-10-17T19:03:54.461Z,11.70
2018-10-17T19:06:22.671Z,7.10
2018-10-17T19:08:50.866Z,6.47
2018-10-17T19:11:19.078Z,6.23
2018-10-17T19:13:47.193Z,4.67
2018-10-17T19:16:15.416Z,7.35
2018-10-17T19:18:43.563Z,6.23
2018-10-17T19:21:12.034Z,7.67
2018-10-17T19:23:40.196Z,6.37
2018-10-17T19:26:08.351Z,5.70
2018-10-17T19:28:36.772Z,5.90
2018-10-17T19:31:04.954Z,4.77
2018-10-17T19:33:33.130Z,4.47
2018-10-17T19:36:01.363Z,4.47
2018-10-17T19:38:29.737Z,10.93
2018-10-17T19:40:57.908Z,4.77
2018-10-17T19:43:29.569Z,4.70
2018-10-17T19:45:57.819Z,4.73
2018-10-17T19:48:26.260Z,4.23
2018-10-17T19:50:54.718Z,6.83
2018-10-17T19:53:22.865Z,6.20
2018-10-17T19:55:51.141Z,10.27
2018-10-17T19:58:19.318Z,7.50
2018-10-17T20:00:47.498Z,5.70
2018-10-17T20:03:15.761Z,6.47
2018-10-17T20:05:43.961Z,8.97
2018-10-17T20:08:12.396Z,7.17
2018-10-17T20:10:40.557Z,6.83
2018-10-17T20:13:08.778Z,6.03
2018-10-17T20:15:36.913Z,6.50
2018-10-17T20:18:05.300Z,6.63
2018-10-17T20:20:33.507Z,5.67
2018-10-17T20:23:01.674Z,4.80
2018-10-17T20:25:29.900Z,5.23
2018-10-17T20:27:58.291Z,6.00
2018-10-17T20:30:26.433Z,4.60
2018-10-17T20:32:54.572Z,7.60
2018-10-17T20:35:22.719Z,7.83
2018-10-17T20:37:51.161Z,5.23
2018-10-17T20:40:19.343Z,5.07
2018-10-17T20:42:47.487Z,7.00
2018-10-17T20:45:15.690Z,5.30
2018-10-17T20:47:44.009Z,7.63
2018-10-17T20:50:12.328Z,5.13
2018-10-17T20:52:40.450Z,5.60
2018-10-17T20:55:08.645Z,6.87
2018-10-17T20:57:36.977Z,6.17
2018-10-17T21:00:06.714Z,4.77
2018-10-17T21:02:34.972Z,6.47
2018-10-17T21:05:03.176Z,6.00
2018-10-17T21:07:31.449Z,5.97
2018-10-17T21:09:59.644Z,5.30
2018-10-17T21:12:27.791Z,5.27
2018-10-17T21:14:55.937Z,5.93
2018-10-17T21:17:24.399Z,8.13
2018-10-17T21:19:52.657Z,6.43
2018-10-17T21:22:20.783Z,6.70
2018-10-17T21:24:48.925Z,6.53
2018-10-17T21:27:17.202Z,5.57
2018-10-17T21:29:45.356Z,5.97
2018-10-17T21:32:13.587Z,5.40
2018-10-17T21:34:41.976Z,5.03
2018-10-17T21:37:10.405Z,5.20
2018-10-17T21:39:38.557Z,6.53
2018-10-17T21:42:06.735Z,5.17
2018-10-17T21:44:34.840Z,5.87
2018-10-17T21:47:03.055Z,7.83
2018-10-17T21:49:31.190Z,7.93
2018-10-17T21:51:59.358Z,6.57
2018-10-17T21:54:27.522Z,7.13
2018-10-17T21:56:56.771Z,8.63
2018-10-17T21:59:24.890Z,6.40
2018-10-17T22:01:53.124Z,6.30
2018-10-17T22:04:21.280Z,5.27
2018-10-17T22:06:49.603Z,6.20
2018-10-17T22:09:17.752Z,6.53
2018-10-17T22:11:45.985Z,7.90
2018-10-17T22:14:14.281Z,8.47
2018-10-17T22:16:47.878Z,9.43
2018-10-17T22:19:16.196Z,7.47
2018-10-17T22:21:44.250Z,7.20
2018-10-17T22:24:12.465Z,9.37
2018-10-17T22:26:40.750Z,11.50
2018-10-17T22:29:08.919Z,6.20
2018-10-17T22:31:37.094Z,8.10
2018-10-17T22:34:05.383Z,6.43
2018-10-17T22:36:33.708Z,7.20
2018-10-17T22:39:01.860Z,9.87
2018-10-17T22:41:30.031Z,8.77
2018-10-17T22:43:58.192Z,6.73
2018-10-17T22:46:26.692Z,7.30
2018-10-17T22:48:54.897Z,8.30
2018-10-17T22:51:23.120Z,7.63
2018-10-17T22:53:51.291Z,7.87
2018-10-17T22:56:19.551Z,6.20
2018-10-17T22:58:47.723Z,6.53
2018-10-17T23:01:16.136Z,6.77
2018-10-17T23:03:44.311Z,5.30
2018-10-17T23:06:12.480Z,6.37
2018-10-17T23:08:40.680Z,6.70
2018-10-17T23:11:09.114Z,6.40
2018-10-17T23:13:37.486Z,7.77
2018-10-17T23:16:05.695Z,6.40
2018-10-17T23:18:33.952Z,5.03
2018-10-17T23:21:02.189Z,7.07
2018-10-17T23:23:30.382Z,4.90
2018-10-17T23:29:01.132Z,7.77
2018-10-17T23:31:29.287Z,6.17
2018-10-17T23:33:57.519Z,7.50
2018-10-17T23:36:25.670Z,5.07
2018-10-17T23:38:53.836Z,5.50
2018-10-17T23:41:22.464Z,5.27
2018-10-17T23:43:50.609Z,5.60
2018-10-17T23:46:18.853Z,6.03
2018-10-17T23:48:47.014Z,5.73
2018-10-17T23:51:15.172Z,6.57
2018-10-17T23:53:43.315Z,7.23
2018-10-17T23:56:11.566Z,7.20
2018-10-17T23:58:39.697Z,5.23
